This is the latest recevied weather packets stored in our database for station/object DH0DM-13. If no packets are shown the sender has not sent any weather packets the latest 10 day(s).
| Time | Temp. | Humidity | Pressure | Rain* | Wind** | Luminosity | Snow |
|---|---|---|---|---|---|---|---|
| 1777858826 | 15° C | 62% | 986.4 hPa | 0 mm | 0.45 m/s, 126° | - | - |
| 1777858225 | 15° C | 60% | 986.3 hPa | 0 mm | 0.89 m/s, 96° | - | - |
| 1777857624 | 15.56° C | 58% | 986.4 hPa | 0 mm | 0 m/s | - | - |
| 1777857023 | 16.11° C | 56% | 986.4 hPa | 0 mm | 0 m/s | - | - |
| 1777856422 | 16.67° C | 55% | 986.4 hPa | 0 mm | 0 m/s | - | - |
| 1777855821 | 16.11° C | 55% | 986.3 hPa | 0 mm | 0 m/s | - | - |
| 1777855220 | 16.11° C | 54% | 986.2 hPa | 0 mm | 0 m/s | - | - |
| 1777854620 | 16.67° C | 54% | 986.1 hPa | 0 mm | 0.89 m/s, 217° | - | - |
| 1777854019 | 17.22° C | 51% | 985.9 hPa | 0 mm | 0.89 m/s, 201° | - | - |
| 1777853418 | 17.78° C | 48% | 986.1 hPa | 0 mm | 0 m/s | - | - |
| 1777852817 | 18.33° C | 47% | 985.7 hPa | 0 mm | 0 m/s | - | - |
| 1777852216 | 18.33° C | 46% | 985.9 hPa | 0 mm | 0.45 m/s, 328° | - | - |
| 1777851615 | 18.33° C | 45% | 985.7 hPa | 0 mm | 0.45 m/s, 205° | - | - |
| 1777851014 | 18.89° C | 44% | 985.5 hPa | 0 mm | 2.68 m/s, 222° | - | - |
| 1777850413 | 19.44° C | 43% | 985.6 hPa | 0 mm | 4.92 m/s, 235° | - | - |
| 1777849812 | 19.44° C | 42% | 985.7 hPa | 0 mm | 2.24 m/s, 251° | - | - |
| 1777849212 | 19.44° C | 42% | 985.5 hPa | 0 mm | 6.26 m/s, 61° | - | - |
| 1777848610 | 19.44° C | 43% | 985.4 hPa | 0 mm | 4.02 m/s, 224° | - | - |
| 1777848010 | 19.44° C | 42% | 985.4 hPa | 0 mm | 4.47 m/s, 153° | - | - |
| 1777847409 | 20° C | 42% | 985.4 hPa | 0 mm | 2.68 m/s, 254° | - | - |
| 1777846808 | 20° C | 41% | 985.5 hPa | 0 mm | 2.68 m/s, 128° | - | - |
| 1777846207 | 19.44° C | 42% | 985.3 hPa | 0 mm | 0.89 m/s, 157° | - | - |
| 1777845606 | 20° C | 41% | 985.3 hPa | 0 mm | 3.58 m/s, 226° | - | - |
| 1777845005 | 20° C | 41% | 985.3 hPa | 0 mm | 5.81 m/s, 250° | - | - |
| 1777844405 | 20° C | 40% | 984.9 hPa | 0 mm | 4.92 m/s, 199° | - | - |
* Rain since midnight (hover to see other rain measurements)
** Current wind speed in m/s (hover to see current wind gust speed)